createdAt,value
2018-03-27T00:01:45.983Z,9.18
2018-03-27T00:04:14.867Z,9.19
2018-03-27T00:06:43.999Z,9.17
2018-03-27T00:09:14.593Z,9.14
2018-03-27T00:11:43.553Z,9.12
2018-03-27T00:14:12.595Z,9.12
2018-03-27T00:16:41.803Z,9.09
2018-03-27T00:19:11.139Z,9.07
2018-03-27T00:21:42.826Z,9.05
2018-03-27T00:24:12.570Z,9.02
2018-03-27T00:26:50.277Z,8.99
2018-03-27T00:29:30.800Z,8.93
2018-03-27T00:32:11.243Z,8.90
2018-03-27T00:34:51.338Z,8.89
2018-03-27T00:37:31.637Z,8.90
2018-03-27T00:40:12.397Z,8.88
2018-03-27T00:42:41.761Z,8.88
2018-03-27T00:45:11.289Z,8.88
2018-03-27T00:47:40.582Z,8.84
2018-03-27T00:50:09.644Z,8.85
2018-03-27T00:52:38.592Z,8.85
2018-03-27T00:55:07.821Z,8.81
2018-03-27T00:57:36.830Z,8.76
2018-03-27T01:00:06.936Z,8.69
2018-03-27T01:02:36.243Z,8.73
2018-03-27T01:05:09.587Z,8.77
2018-03-27T01:07:38.633Z,8.81
2018-03-27T01:10:07.858Z,8.81
2018-03-27T01:12:36.809Z,8.80
2018-03-27T01:15:05.947Z,8.83
2018-03-27T01:17:37.066Z,8.83
2018-03-27T01:20:07.007Z,8.88
2018-03-27T01:22:36.045Z,8.86
2018-03-27T01:25:05.341Z,8.84
2018-03-27T01:27:34.551Z,8.84
2018-03-27T01:30:04.720Z,8.83
2018-03-27T01:32:34.030Z,8.80
2018-03-27T01:35:03.232Z,8.78
2018-03-27T01:37:32.155Z,8.81
2018-03-27T01:40:03.734Z,8.80
2018-03-27T01:42:32.677Z,8.80
2018-03-27T01:45:02.348Z,8.78
2018-03-27T01:47:31.544Z,8.80
2018-03-27T01:50:00.480Z,8.80
2018-03-27T01:52:29.438Z,8.79
2018-03-27T01:54:58.334Z,8.80
2018-03-27T01:57:27.270Z,8.84
2018-03-27T01:59:56.519Z,8.86
2018-03-27T02:02:25.507Z,8.86
2018-03-27T02:04:54.578Z,8.88
2018-03-27T02:07:23.838Z,8.86
2018-03-27T02:09:52.808Z,8.87
2018-03-27T02:12:26.855Z,8.88
2018-03-27T02:15:01.607Z,8.85
2018-03-27T02:17:35.954Z,8.83
2018-03-27T02:20:11.696Z,8.79
2018-03-27T02:22:40.932Z,8.76
2018-03-27T02:25:09.968Z,8.72
2018-03-27T02:27:39.260Z,8.65
2018-03-27T02:30:08.214Z,8.64
2018-03-27T02:32:37.223Z,8.57
2018-03-27T02:35:06.459Z,8.52
2018-03-27T02:37:35.383Z,8.52
2018-03-27T02:40:05.673Z,8.52
2018-03-27T02:42:35.590Z,8.54
2018-03-27T02:45:05.246Z,8.42
2018-03-27T02:47:34.297Z,8.29
2018-03-27T02:50:04.729Z,8.22
2018-03-27T02:52:33.706Z,8.19
2018-03-27T02:55:03.083Z,8.19
2018-03-27T02:57:33.063Z,8.14
2018-03-27T03:00:02.842Z,8.06
2018-03-27T03:02:31.838Z,8.09
2018-03-27T03:05:01.451Z,8.11
2018-03-27T03:07:30.782Z,8.17
2018-03-27T03:09:59.832Z,8.22
2018-03-27T03:12:29.156Z,8.23
2018-03-27T03:14:58.111Z,8.28
2018-03-27T03:17:27.086Z,8.25
2018-03-27T03:19:56.002Z,8.31
2018-03-27T03:22:24.895Z,8.33
2018-03-27T03:24:54.206Z,8.40
2018-03-27T03:27:23.175Z,8.44
2018-03-27T03:29:52.138Z,8.49
2018-03-27T03:32:21.511Z,8.57
2018-03-27T03:34:50.506Z,8.58
2018-03-27T03:37:19.501Z,8.54
2018-03-27T03:39:48.815Z,8.55
2018-03-27T03:42:17.879Z,8.51
2018-03-27T03:44:46.902Z,8.49
2018-03-27T03:47:15.892Z,8.53
2018-03-27T03:49:44.892Z,8.53
2018-03-27T03:52:14.337Z,8.54
2018-03-27T03:54:43.630Z,8.54
2018-03-27T03:57:12.787Z,8.49
2018-03-27T03:59:41.639Z,8.49
2018-03-27T04:02:10.806Z,8.44
2018-03-27T04:04:39.760Z,8.40
2018-03-27T04:07:09.006Z,8.34
2018-03-27T04:09:38.364Z,8.27
2018-03-27T04:12:07.384Z,8.29
2018-03-27T04:14:36.654Z,8.27
2018-03-27T04:17:05.633Z,8.26
2018-03-27T04:19:34.621Z,8.26
2018-03-27T04:22:06.196Z,8.29
2018-03-27T04:24:35.786Z,8.25
2018-03-27T04:27:05.794Z,8.29
2018-03-27T04:29:34.757Z,8.21
2018-03-27T04:32:04.825Z,8.20
2018-03-27T04:34:34.124Z,8.16
2018-03-27T04:37:03.938Z,8.11
2018-03-27T04:39:32.887Z,8.02
2018-03-27T04:42:03.009Z,7.84
2018-03-27T04:44:31.966Z,7.80
2018-03-27T04:47:00.981Z,7.76
2018-03-27T04:49:30.373Z,7.75
2018-03-27T04:51:59.328Z,7.73
2018-03-27T04:54:28.233Z,7.72
2018-03-27T04:56:57.460Z,7.75
2018-03-27T04:59:26.778Z,7.73
2018-03-27T05:01:55.844Z,7.70
2018-03-27T05:04:25.160Z,7.68
2018-03-27T05:06:54.153Z,7.71
2018-03-27T05:09:23.139Z,7.59
2018-03-27T05:11:52.174Z,7.55
2018-03-27T05:14:21.172Z,7.55
2018-03-27T05:16:50.488Z,7.45
2018-03-27T05:19:19.374Z,7.46
2018-03-27T05:21:48.380Z,7.37
2018-03-27T05:24:17.612Z,7.32
2018-03-27T05:26:46.550Z,7.21
2018-03-27T05:29:15.829Z,7.25
2018-03-27T05:31:45.116Z,7.22
2018-03-27T05:34:14.109Z,7.10
2018-03-27T05:36:43.073Z,7.14
2018-03-27T05:39:12.499Z,7.13
2018-03-27T05:41:41.500Z,7.12
2018-03-27T05:44:10.580Z,7.11
2018-03-27T05:46:39.776Z,7.00
2018-03-27T05:49:08.740Z,6.96
2018-03-27T05:51:37.610Z,7.03
2018-03-27T05:54:06.590Z,7.03
2018-03-27T05:56:35.582Z,7.01
2018-03-27T05:59:05.849Z,7.05
2018-03-27T06:01:34.752Z,7.01
2018-03-27T06:04:04.589Z,7.09
2018-03-27T06:06:33.922Z,7.06
2018-03-27T06:09:03.141Z,7.17
2018-03-27T06:11:32.167Z,7.28
2018-03-27T06:14:01.440Z,7.33
2018-03-27T06:16:30.490Z,7.30
2018-03-27T06:18:59.567Z,7.23
2018-03-27T06:21:28.892Z,7.26
2018-03-27T06:23:58.046Z,7.17
2018-03-27T06:26:27.051Z,7.15
2018-03-27T06:28:56.299Z,7.21
2018-03-27T06:31:25.384Z,7.31
2018-03-27T06:33:54.338Z,7.44
2018-03-27T06:36:23.237Z,7.47
2018-03-27T06:38:52.228Z,7.50
2018-03-27T06:41:21.427Z,7.61
2018-03-27T06:43:50.416Z,7.68
2018-03-27T06:46:19.995Z,7.71
2018-03-27T06:48:49.209Z,7.79
2018-03-27T06:51:18.220Z,7.84
2018-03-27T06:53:47.165Z,7.83
2018-03-27T06:56:16.426Z,7.91
2018-03-27T06:58:45.411Z,7.79
2018-03-27T07:01:15.925Z,7.73
2018-03-27T07:03:44.904Z,7.79
2018-03-27T07:06:14.449Z,7.79
2018-03-27T07:08:43.475Z,7.73
2018-03-27T07:11:12.700Z,7.78
2018-03-27T07:13:41.663Z,7.89
2018-03-27T07:16:10.748Z,7.99
2018-03-27T07:18:39.746Z,8.06
2018-03-27T07:21:08.686Z,8.10
2018-03-27T07:23:37.979Z,8.08
2018-03-27T07:26:06.949Z,8.21
2018-03-27T07:31:35.859Z,8.37
2018-03-27T07:34:05.949Z,8.32
2018-03-27T07:36:34.906Z,8.41
2018-03-27T07:39:04.903Z,8.47
2018-03-27T07:41:33.887Z,8.62
2018-03-27T07:44:03.302Z,8.44
2018-03-27T07:46:32.263Z,8.50
2018-03-27T07:49:02.120Z,8.67
2018-03-27T07:51:31.790Z,8.67
2018-03-27T07:54:01.035Z,8.76
2018-03-27T07:56:30.187Z,8.73
2018-03-27T07:58:59.337Z,8.88
2018-03-27T08:01:28.422Z,8.98
2018-03-27T08:03:57.375Z,9.08
2018-03-27T08:06:26.575Z,9.24
2018-03-27T08:08:55.489Z,9.48
2018-03-27T08:11:24.337Z,9.47
2018-03-27T08:13:53.663Z,9.64
2018-03-27T08:16:22.611Z,9.79
2018-03-27T08:18:52.130Z,9.85
2018-03-27T08:21:21.384Z,9.89
2018-03-27T08:23:50.974Z,10.08
2018-03-27T08:26:26.411Z,10.11
2018-03-27T08:28:55.472Z,10.17
2018-03-27T08:31:24.488Z,10.45
2018-03-27T08:33:53.807Z,10.75
2018-03-27T08:36:22.971Z,10.98
2018-03-27T08:38:51.918Z,11.12
2018-03-27T08:41:21.741Z,11.21
2018-03-27T08:43:50.888Z,11.27
2018-03-27T08:46:20.038Z,11.33
2018-03-27T08:48:49.479Z,11.52
2018-03-27T08:51:18.469Z,11.61
2018-03-27T08:53:47.412Z,11.77
2018-03-27T08:56:17.081Z,12.06
2018-03-27T08:58:46.147Z,12.37
2018-03-27T09:01:16.011Z,12.43
2018-03-27T09:03:45.293Z,12.51
2018-03-27T09:06:14.291Z,12.74
2018-03-27T09:08:43.941Z,12.70
2018-03-27T09:11:12.898Z,12.73
2018-03-27T09:13:41.867Z,12.77
2018-03-27T09:16:11.336Z,12.51
2018-03-27T09:18:40.328Z,12.35
2018-03-27T09:21:09.275Z,13.00
2018-03-27T09:23:38.817Z,13.45
2018-03-27T09:26:07.814Z,13.70
2018-03-27T09:28:36.871Z,13.81
2018-03-27T09:31:06.213Z,13.96
2018-03-27T09:33:35.275Z,13.27
2018-03-27T09:36:05.350Z,13.17
2018-03-27T09:38:34.621Z,12.95
2018-03-27T09:41:04.536Z,12.42
2018-03-27T09:43:33.451Z,12.42
2018-03-27T09:46:04.620Z,12.32
2018-03-27T09:48:35.802Z,12.17
2018-03-27T09:51:06.035Z,12.23
2018-03-27T09:53:35.138Z,11.97
2018-03-27T09:56:05.505Z,12.11
2018-03-27T09:58:34.812Z,12.09
2018-03-27T10:01:08.016Z,12.23
2018-03-27T10:03:36.941Z,12.33
2018-03-27T10:06:06.583Z,12.36
2018-03-27T10:08:35.563Z,12.47
2018-03-27T10:11:04.719Z,12.44
2018-03-27T10:13:34.071Z,12.20
2018-03-27T10:16:04.881Z,12.17
2018-03-27T10:18:34.310Z,11.96
2018-03-27T10:21:04.759Z,11.53
2018-03-27T10:23:33.746Z,11.48
2018-03-27T10:26:03.497Z,11.49
2018-03-27T10:28:32.658Z,11.50
2018-03-27T10:31:02.681Z,11.51
2018-03-27T10:33:32.766Z,11.50
2018-03-27T10:36:03.936Z,11.52
2018-03-27T10:38:33.145Z,11.59
2018-03-27T10:41:04.665Z,11.73
2018-03-27T10:43:33.643Z,11.83
2018-03-27T10:46:03.782Z,11.88
2018-03-27T10:48:34.135Z,11.75
2018-03-27T10:51:03.681Z,11.73
2018-03-27T10:53:32.803Z,11.88
2018-03-27T10:56:02.955Z,11.80
2018-03-27T10:58:31.836Z,11.88
2018-03-27T11:01:01.010Z,11.90
2018-03-27T11:03:30.272Z,11.91
2018-03-27T11:05:59.195Z,12.01
2018-03-27T11:08:28.259Z,12.15
2018-03-27T11:10:57.647Z,12.18
2018-03-27T11:13:26.588Z,12.19
2018-03-27T11:15:55.643Z,12.18
2018-03-27T11:18:24.638Z,12.16
2018-03-27T11:20:53.816Z,11.96
2018-03-27T11:23:23.165Z,11.95
2018-03-27T11:25:52.207Z,11.88
2018-03-27T11:28:21.224Z,11.90
2018-03-27T11:30:50.702Z,11.78
2018-03-27T11:33:19.711Z,11.75
2018-03-27T11:35:48.791Z,11.76
2018-03-27T11:38:18.120Z,11.72
2018-03-27T11:40:47.015Z,11.55
2018-03-27T11:43:16.011Z,11.67
2018-03-27T11:45:45.208Z,11.78
2018-03-27T11:48:14.300Z,11.83
2018-03-27T11:50:43.280Z,11.92
2018-03-27T11:53:13.205Z,11.95
2018-03-27T11:55:42.361Z,12.01
2018-03-27T11:58:14.073Z,12.13
2018-03-27T12:00:44.177Z,12.25
2018-03-27T12:03:14.531Z,12.27
2018-03-27T12:05:44.567Z,12.37
2018-03-27T12:08:14.099Z,12.40
2018-03-27T12:10:43.199Z,12.52
2018-03-27T12:13:12.833Z,12.71
2018-03-27T12:15:41.805Z,12.90
2018-03-27T12:18:11.089Z,13.24
2018-03-27T12:20:40.913Z,13.57
2018-03-27T12:23:09.954Z,14.04
2018-03-27T12:28:03.851Z,15.40
2018-03-27T12:30:33.365Z,16.14
2018-03-27T12:33:04.102Z,17.15
2018-03-27T12:35:33.619Z,17.81
2018-03-27T12:38:03.403Z,18.62
2018-03-27T12:40:32.463Z,19.20
2018-03-27T12:43:04.336Z,19.48
2018-03-27T12:45:33.278Z,19.22
2018-03-27T12:48:04.421Z,18.49
2018-03-27T12:50:33.696Z,19.35
2018-03-27T12:53:02.666Z,19.65
2018-03-27T12:55:32.314Z,20.20
2018-03-27T12:58:03.183Z,20.22
2018-03-27T13:00:32.626Z,19.86
2018-03-27T13:03:01.588Z,19.42
2018-03-27T13:05:32.394Z,19.63
2018-03-27T13:08:04.630Z,19.20
2018-03-27T13:10:35.047Z,19.07
2018-03-27T13:13:05.255Z,19.15
2018-03-27T13:15:34.560Z,18.71
2018-03-27T13:18:06.355Z,17.96
2018-03-27T13:20:35.274Z,17.99
2018-03-27T13:23:05.224Z,18.33
2018-03-27T13:25:37.013Z,18.59
2018-03-27T13:28:05.935Z,17.96
2018-03-27T13:30:35.541Z,17.80
2018-03-27T13:33:05.654Z,17.65
2018-03-27T13:35:34.537Z,17.63
2018-03-27T13:38:05.483Z,17.68
2018-03-27T13:40:34.700Z,17.53
2018-03-27T13:43:04.667Z,17.49
2018-03-27T13:45:33.579Z,17.61
2018-03-27T13:48:03.938Z,17.49
2018-03-27T13:50:36.448Z,17.60
2018-03-27T13:53:06.160Z,17.75
2018-03-27T13:55:35.408Z,17.26
2018-03-27T13:58:05.268Z,17.30
2018-03-27T14:00:34.452Z,17.22
2018-03-27T14:03:05.479Z,17.05
2018-03-27T14:05:34.803Z,16.27
2018-03-27T14:08:07.219Z,16.24
2018-03-27T14:10:36.517Z,16.10
2018-03-27T14:13:05.919Z,15.93
2018-03-27T14:15:34.848Z,15.70
2018-03-27T14:18:05.895Z,15.56
2018-03-27T14:20:34.846Z,15.36
2018-03-27T14:23:03.978Z,15.30
2018-03-27T14:25:33.561Z,15.26
2018-03-27T14:28:03.589Z,15.33
2018-03-27T14:30:32.478Z,15.26
2018-03-27T14:33:01.852Z,15.27
2018-03-27T14:35:30.897Z,15.04
2018-03-27T14:38:00.586Z,15.14
2018-03-27T14:40:29.738Z,15.02
2018-03-27T14:42:58.710Z,14.79
2018-03-27T14:45:27.660Z,14.57
2018-03-27T14:47:57.239Z,14.49
2018-03-27T14:50:26.294Z,14.36
2018-03-27T14:52:55.217Z,14.24
2018-03-27T14:55:24.288Z,14.16
2018-03-27T14:57:53.531Z,14.09
2018-03-27T15:00:23.042Z,14.15
2018-03-27T15:02:52.035Z,14.06
2018-03-27T15:05:21.298Z,13.99
2018-03-27T15:07:50.205Z,13.91
2018-03-27T15:10:19.204Z,13.80
2018-03-27T15:12:48.096Z,13.88
2018-03-27T15:15:16.963Z,13.98
2018-03-27T15:17:46.123Z,14.07
2018-03-27T15:20:15.025Z,14.09
2018-03-27T15:22:43.927Z,14.18
2018-03-27T15:25:13.088Z,14.10
2018-03-27T15:27:41.977Z,13.96
2018-03-27T15:30:10.972Z,13.75
2018-03-27T15:32:40.252Z,13.61
2018-03-27T15:35:09.384Z,13.60
2018-03-27T15:37:38.238Z,13.52
2018-03-27T15:40:07.195Z,13.55
2018-03-27T15:42:36.198Z,13.50
2018-03-27T15:45:05.353Z,13.51
2018-03-27T15:47:34.230Z,13.53
2018-03-27T15:50:05.228Z,13.52
2018-03-27T15:52:34.161Z,13.34
2018-03-27T15:55:04.522Z,13.36
2018-03-27T15:57:33.403Z,13.41
2018-03-27T16:00:05.299Z,13.31
2018-03-27T16:02:34.981Z,13.33
2018-03-27T16:05:05.945Z,13.40
2018-03-27T16:07:34.878Z,13.35
2018-03-27T16:10:05.059Z,13.16
2018-03-27T16:12:34.007Z,13.07
2018-03-27T16:15:03.551Z,13.04
2018-03-27T16:17:32.771Z,13.03
2018-03-27T16:20:02.564Z,12.96
2018-03-27T16:22:31.548Z,12.90
2018-03-27T16:25:00.859Z,12.88
2018-03-27T16:27:29.762Z,12.85
2018-03-27T16:29:58.625Z,12.81
2018-03-27T16:32:27.832Z,12.69
2018-03-27T16:34:56.746Z,12.52
2018-03-27T16:37:26.171Z,12.49
2018-03-27T16:39:55.373Z,12.61
2018-03-27T16:42:24.299Z,12.67
2018-03-27T16:44:53.249Z,12.72
2018-03-27T16:47:22.947Z,12.78
2018-03-27T16:49:51.866Z,12.79
2018-03-27T16:52:21.261Z,12.78
2018-03-27T16:54:50.494Z,12.79
2018-03-27T16:57:19.450Z,12.72
2018-03-27T16:59:48.376Z,12.65
2018-03-27T17:02:18.729Z,12.48
2018-03-27T17:04:47.825Z,12.51
2018-03-27T17:07:17.593Z,12.36
2018-03-27T17:09:48.079Z,12.33
2018-03-27T17:12:17.163Z,12.40
2018-03-27T17:14:46.086Z,12.22
2018-03-27T17:17:15.433Z,12.14
2018-03-27T17:19:44.467Z,12.16
2018-03-27T17:22:13.447Z,12.15
2018-03-27T17:24:42.667Z,12.09
2018-03-27T17:27:11.951Z,12.07
2018-03-27T17:29:40.870Z,12.07
2018-03-27T17:32:10.076Z,12.09
2018-03-27T17:34:38.978Z,12.15
2018-03-27T17:37:07.944Z,12.18
2018-03-27T17:39:37.190Z,12.14
2018-03-27T17:42:06.173Z,11.93
2018-03-27T17:44:35.077Z,11.96
2018-03-27T17:47:04.494Z,11.92
2018-03-27T17:49:33.424Z,11.82
2018-03-27T17:52:03.145Z,11.86
2018-03-27T17:54:32.383Z,11.84
2018-03-27T18:00:00.760Z,11.88
2018-03-27T18:02:29.730Z,11.81
2018-03-27T18:04:58.639Z,11.79
2018-03-27T18:07:27.860Z,11.78
2018-03-27T18:09:56.819Z,11.65
2018-03-27T18:12:25.758Z,11.66
2018-03-27T18:14:55.113Z,11.63
2018-03-27T18:17:24.216Z,11.62
2018-03-27T18:19:53.193Z,11.62
2018-03-27T18:22:22.596Z,11.61
2018-03-27T18:24:51.613Z,11.60
2018-03-27T18:27:20.657Z,11.63
2018-03-27T18:29:49.674Z,11.64
2018-03-27T18:32:18.985Z,11.58
2018-03-27T18:34:47.975Z,11.47
2018-03-27T18:37:17.250Z,11.53
2018-03-27T18:39:46.215Z,11.56
2018-03-27T18:42:15.152Z,11.49
2018-03-27T18:44:44.124Z,11.46
2018-03-27T18:47:13.258Z,11.46
2018-03-27T18:49:42.620Z,11.47
2018-03-27T18:54:51.626Z,11.37
2018-03-27T18:57:20.832Z,11.35
2018-03-27T18:59:50.217Z,11.21
2018-03-27T19:02:19.328Z,11.23
2018-03-27T19:04:48.437Z,11.19
2018-03-27T19:07:19.564Z,11.07
2018-03-27T19:09:48.470Z,11.09
2018-03-27T19:12:17.455Z,11.06
2018-03-27T19:14:46.849Z,11.05
2018-03-27T19:17:16.011Z,10.96
2018-03-27T19:19:44.976Z,10.94
2018-03-27T19:22:28.755Z,10.82
2018-03-27T19:24:58.017Z,10.67
2018-03-27T19:27:28.766Z,10.68
2018-03-27T19:29:57.776Z,10.53
2018-03-27T19:32:27.241Z,10.41
2018-03-27T19:34:56.229Z,10.31
2018-03-27T19:37:25.284Z,10.35
2018-03-27T19:39:54.254Z,10.31
2018-03-27T19:42:24.889Z,10.32
2018-03-27T19:44:53.877Z,10.35
2018-03-27T19:47:22.785Z,10.40
2018-03-27T19:49:51.987Z,10.37
2018-03-27T19:52:21.169Z,10.25
2018-03-27T19:54:50.145Z,10.17
2018-03-27T19:57:19.446Z,10.17
2018-03-27T19:59:48.455Z,10.05
2018-03-27T20:02:18.044Z,10.08
2018-03-27T20:04:47.281Z,10.08
2018-03-27T20:07:17.057Z,10.04
2018-03-27T20:09:45.981Z,10.02
2018-03-27T20:12:15.556Z,10.03
2018-03-27T20:14:44.483Z,10.08
2018-03-27T20:17:13.625Z,10.13
2018-03-27T20:19:42.994Z,10.14
2018-03-27T20:22:12.157Z,10.20
2018-03-27T20:24:41.097Z,10.23
2018-03-27T20:27:10.341Z,10.17
2018-03-27T20:29:39.285Z,10.16
2018-03-27T20:32:08.221Z,10.10
2018-03-27T20:34:37.465Z,10.11
2018-03-27T20:37:06.534Z,10.00
2018-03-27T20:39:36.167Z,9.88
2018-03-27T20:42:06.293Z,9.92
2018-03-27T20:44:35.263Z,9.85
2018-03-27T20:47:04.264Z,9.86
2018-03-27T20:49:33.636Z,9.80
2018-03-27T20:52:03.327Z,9.81
2018-03-27T20:54:32.396Z,9.82
2018-03-27T20:57:01.886Z,9.85
2018-03-27T20:59:31.295Z,9.87
2018-03-27T21:02:00.952Z,9.83
2018-03-27T21:04:30.926Z,9.79
2018-03-27T21:06:59.981Z,9.76
2018-03-27T21:09:28.913Z,9.80
2018-03-27T21:11:58.364Z,9.80
2018-03-27T21:14:27.309Z,9.80
2018-03-27T21:16:56.311Z,9.77
2018-03-27T21:19:25.720Z,9.75
2018-03-27T21:21:54.888Z,9.77
2018-03-27T21:24:23.970Z,9.77
2018-03-27T21:26:53.219Z,9.81
2018-03-27T21:29:22.232Z,9.84
2018-03-27T21:31:51.317Z,9.85
2018-03-27T21:34:20.936Z,9.87
2018-03-27T21:36:49.981Z,9.86
2018-03-27T21:39:19.033Z,9.75
2018-03-27T21:41:48.857Z,9.67
2018-03-27T21:44:17.989Z,9.65
2018-03-27T21:46:47.052Z,9.59
2018-03-27T21:49:16.281Z,9.60
2018-03-27T21:51:45.282Z,9.59
2018-03-27T21:54:14.293Z,9.52
2018-03-27T21:56:43.554Z,9.57
2018-03-27T22:01:39.733Z,9.59
2018-03-27T22:04:09.199Z,9.50
2018-03-27T22:06:38.157Z,9.44
2018-03-27T22:09:07.491Z,9.44
2018-03-27T22:11:36.841Z,9.46
2018-03-27T22:14:05.962Z,9.47
2018-03-27T22:16:35.542Z,9.50
2018-03-27T22:19:04.890Z,9.59
2018-03-27T22:21:34.111Z,9.53
2018-03-27T22:24:04.034Z,9.50
2018-03-27T22:26:32.930Z,9.47
2018-03-27T22:29:02.563Z,9.46
2018-03-27T22:31:32.522Z,9.43
2018-03-27T22:34:02.312Z,9.45
2018-03-27T22:37:33.863Z,9.50
2018-03-27T22:40:03.581Z,9.44
2018-03-27T22:42:33.340Z,9.43
2018-03-27T22:45:03.507Z,9.50
2018-03-27T22:47:32.510Z,9.47
2018-03-27T22:50:03.548Z,9.48
2018-03-27T22:52:32.674Z,9.46
2018-03-27T22:55:02.001Z,9.50
2018-03-27T22:57:31.573Z,9.44
2018-03-27T23:00:00.516Z,9.47
2018-03-27T23:02:29.476Z,9.47
2018-03-27T23:04:58.805Z,9.42
2018-03-27T23:07:27.723Z,9.36
2018-03-27T23:09:56.711Z,9.41
2018-03-27T23:12:25.649Z,9.40
2018-03-27T23:17:20.153Z,9.36
2018-03-27T23:19:49.516Z,9.40
2018-03-27T23:22:27.736Z,9.37
2018-03-27T23:24:57.203Z,9.26
2018-03-27T23:27:26.128Z,9.33
2018-03-27T23:29:55.052Z,9.39
2018-03-27T23:32:24.280Z,9.38
2018-03-27T23:34:53.274Z,9.30
2018-03-27T23:37:22.177Z,9.32
2018-03-27T23:39:51.467Z,9.35
2018-03-27T23:42:20.451Z,9.34
2018-03-27T23:44:49.318Z,9.31
2018-03-27T23:47:18.538Z,9.30
2018-03-27T23:49:47.502Z,9.36
2018-03-27T23:52:16.398Z,9.32
2018-03-27T23:54:45.313Z,9.31
2018-03-27T23:57:14.288Z,9.29
2018-03-27T23:59:43.641Z,9.21
